Sierra Blanca Regional Airport
KSRR : now visible

Airfield :











YOU CAN JOIN US ON...

 
LOGIN :

Register | Disclaimer

   EN    FR    IT 

 









Legend :    VFR   Marginal VFR   IFR   Intensive IFR   Very Intensive IFR
Visi :
Ceiling :
>= 8 km
>= 3000ft
5 to 8 km
1000 to 3000 ft
1500m to 5 km
500 to 1000 ft
800 to 1500m
200 to 500 ft
< 800m
< 200 ft
Symbols :   Thunderstorms  Fog  Heavy snow  Heavy precipitations  Wind > 20 kt






- Airport Elevation : 6814 ft


KSRR - Sierra Blanca Regional

CURRENT METAR :
  • 261815Z AUTO 32014G24KT 10SM CLR 26/M01 A3022 RMK AO2

EXPIRED METARs :
  • 261755Z AUTO 31015G23KT 10SM CLR 26/M01 A3023 RMK AO2
  • 261735Z AUTO 31011G23KT 10SM CLR 25/00 A3024 RMK AO2
  • 261715Z AUTO 31019G25KT 10SM CLR 25/00 A3024 RMK AO2
  • 261655Z AUTO 33015G24KT 10SM CLR 24/00 A3025 RMK AO2
  • 261635Z AUTO 31012G22KT 10SM CLR 24/00 A3025 RMK AO2
  • 261615Z AUTO 31012G25KT 10SM CLR 23/00 A3025 RMK AO2
  • 261555Z AUTO 31014G23KT 10SM CLR 23/M01 A3024 RMK AO2
  • 261535Z AUTO 32013G20KT 10SM CLR 23/M01 A3024 RMK AO2

TAF N/A
KZAB FIR / North America



MET'MAP, your aeronautical weather chart ! - Copyright ORBIFLY December 2007 - Disclaimer

ORBIFLY MET'MAP TEAM :

Programming & Development : Alexandra Zaïnal
Concept & original design : Baudouin d'Aumeries
Assistance for programming : Marc-Olivier Méhu
Technical & hardware support : Manuel Goepfert

Contact : metmap@orbifly.com




SOURCES & CREDITS :

   NOAA       Earth
Advisory